createdAt,value
2023-05-02T00:00:01.235Z,37.71
2023-05-02T00:02:51.774Z,37.46
2023-05-02T00:05:40.850Z,37.38
2023-05-02T00:08:29.533Z,37.83
2023-05-02T00:11:19.428Z,37.67
2023-05-02T00:14:08.184Z,37.53
2023-05-02T00:16:57.322Z,37.70
2023-05-02T00:19:47.879Z,37.67
2023-05-02T00:22:36.749Z,37.52
2023-05-02T00:25:25.530Z,37.63
2023-05-02T00:28:14.710Z,37.49
2023-05-02T00:31:03.425Z,37.43
2023-05-02T00:33:52.097Z,37.66
2023-05-02T00:36:42.010Z,37.67
2023-05-02T00:39:30.719Z,37.55
2023-05-02T00:42:19.278Z,37.51
2023-05-02T00:45:08.707Z,37.43
2023-05-02T00:47:57.437Z,37.63
2023-05-02T00:50:46.140Z,37.70
2023-05-02T00:53:37.413Z,37.54
2023-05-02T00:56:26.484Z,37.78
2023-05-02T00:59:16.494Z,37.58
2023-05-02T01:02:18.373Z,37.69
2023-05-02T01:05:12.851Z,37.53
2023-05-02T01:08:12.397Z,37.58
2023-05-02T01:11:11.602Z,37.65
2023-05-02T01:14:04.505Z,37.60
2023-05-02T01:16:55.002Z,37.58
2023-05-02T01:19:49.326Z,37.62
2023-05-02T01:22:41.075Z,38.05
2023-05-02T01:25:37.797Z,37.61
2023-05-02T01:28:38.192Z,37.68
2023-05-02T01:31:30.487Z,37.60
2023-05-02T01:34:22.960Z,37.86
2023-05-02T01:37:17.617Z,37.63
2023-05-02T01:40:09.449Z,37.67
2023-05-02T01:42:59.756Z,37.73
2023-05-02T01:45:51.780Z,37.79
2023-05-02T01:48:43.202Z,37.96
2023-05-02T01:51:35.511Z,38.01
2023-05-02T01:54:27.783Z,38.09
2023-05-02T01:57:18.426Z,38.02
2023-05-02T02:00:09.896Z,38.06
2023-05-02T02:02:59.210Z,37.97
2023-05-02T02:05:52.072Z,37.93
2023-05-02T02:08:40.800Z,37.68
2023-05-02T02:11:36.519Z,37.89
2023-05-02T02:14:28.156Z,37.70
2023-05-02T02:17:28.005Z,37.72
2023-05-02T02:20:20.439Z,37.96
2023-05-02T02:23:12.571Z,37.49
2023-05-02T02:26:03.925Z,37.62
2023-05-02T02:28:52.716Z,38.01
2023-05-02T02:31:41.448Z,37.59
2023-05-02T02:34:31.112Z,37.83
2023-05-02T02:37:21.691Z,38.13
2023-05-02T02:40:18.315Z,38.00
2023-05-02T02:43:14.668Z,37.90
2023-05-02T02:46:16.285Z,38.20
2023-05-02T02:49:16.801Z,37.85
2023-05-02T02:52:12.872Z,38.05
2023-05-02T02:55:10.512Z,37.79
2023-05-02T02:58:05.754Z,37.84
2023-05-02T03:00:55.952Z,37.91
2023-05-02T03:03:47.149Z,37.73
2023-05-02T03:06:36.370Z,37.60
2023-05-02T03:09:27.302Z,37.53
2023-05-02T03:12:16.309Z,37.75
2023-05-02T03:15:26.361Z,37.94
2023-05-02T03:18:15.062Z,37.82
2023-05-02T03:21:03.688Z,37.92
2023-05-02T03:23:52.667Z,38.20
2023-05-02T03:26:41.224Z,38.11
2023-05-02T03:29:31.094Z,38.29
2023-05-02T03:32:21.184Z,38.16
2023-05-02T03:35:10.430Z,38.31
2023-05-02T03:37:59.075Z,38.26
2023-05-02T03:40:47.923Z,38.28
2023-05-02T03:43:37.273Z,38.37
2023-05-02T03:46:27.168Z,37.97
2023-05-02T03:49:19.502Z,37.95
2023-05-02T03:52:08.179Z,38.44
2023-05-02T03:54:56.746Z,38.00
2023-05-02T03:57:45.339Z,38.19
2023-05-02T04:00:34.109Z,38.17
2023-05-02T04:03:23.098Z,38.01
2023-05-02T04:06:13.398Z,38.07
2023-05-02T04:09:02.362Z,38.23
2023-05-02T04:11:53.978Z,37.97
2023-05-02T04:14:42.592Z,38.23
2023-05-02T04:17:31.257Z,38.02
2023-05-02T04:20:20.108Z,38.22
2023-05-02T04:23:10.074Z,38.27
2023-05-02T04:25:58.765Z,37.81
2023-05-02T04:28:47.651Z,38.33
2023-05-02T04:31:36.813Z,40.12
2023-05-02T04:34:25.401Z,39.49
2023-05-02T04:37:14.305Z,38.78
2023-05-02T04:40:04.582Z,38.80
2023-05-02T04:42:53.257Z,39.01
2023-05-02T04:45:42.976Z,39.06
2023-05-02T04:48:33.615Z,38.63
2023-05-02T04:51:22.331Z,38.70
2023-05-02T04:54:11.029Z,38.59
2023-05-02T04:57:03.436Z,38.77
2023-05-02T04:59:52.391Z,38.85
2023-05-02T05:02:41.079Z,38.25
2023-05-02T05:05:29.876Z,38.61
2023-05-02T05:08:19.002Z,38.35
2023-05-02T05:11:07.648Z,38.51
2023-05-02T05:13:58.576Z,38.34
2023-05-02T05:16:47.356Z,38.25
2023-05-02T05:19:36.013Z,38.41
2023-05-02T05:22:24.656Z,38.46
2023-05-02T05:25:14.016Z,38.31
2023-05-02T05:28:02.981Z,38.32
2023-05-02T05:30:53.276Z,38.37
2023-05-02T05:33:42.237Z,38.00
2023-05-02T05:36:31.386Z,38.20
2023-05-02T05:39:20.071Z,38.35
2023-05-02T05:42:10.005Z,38.27
2023-05-02T05:44:58.608Z,38.39
2023-05-02T05:47:48.876Z,38.26
2023-05-02T05:50:37.620Z,38.33
2023-05-02T05:53:26.322Z,39.59
2023-05-02T05:56:15.487Z,39.12
2023-05-02T05:59:04.110Z,38.93
2023-05-02T06:01:54.184Z,38.82
2023-05-02T06:04:44.271Z,38.70
2023-05-02T06:07:32.946Z,38.49
2023-05-02T06:10:22.493Z,38.33
2023-05-02T06:13:11.109Z,38.31
2023-05-02T06:16:05.322Z,38.60
2023-05-02T06:18:56.483Z,38.23
2023-05-02T06:21:46.491Z,38.39
2023-05-02T06:24:35.085Z,38.46
2023-05-02T06:27:23.739Z,38.17
2023-05-02T06:30:13.351Z,38.45
2023-05-02T06:33:03.297Z,38.01
2023-05-02T06:35:53.426Z,38.04
2023-05-02T06:38:43.368Z,38.09
2023-05-02T06:41:32.037Z,38.06
2023-05-02T06:44:20.769Z,38.46
2023-05-02T06:47:09.804Z,37.99
2023-05-02T06:49:58.791Z,37.92
2023-05-02T06:52:47.920Z,37.98
2023-05-02T06:55:38.412Z,37.43
2023-05-02T06:58:27.049Z,37.75
2023-05-02T07:01:15.883Z,38.25
2023-05-02T07:04:05.818Z,37.87
2023-05-02T07:06:54.681Z,37.82
2023-05-02T07:09:43.348Z,37.54
2023-05-02T07:12:33.378Z,37.35
2023-05-02T07:15:21.949Z,37.42
2023-05-02T07:18:10.674Z,37.62
2023-05-02T07:21:01.263Z,37.69
2023-05-02T07:23:49.863Z,37.37
2023-05-02T07:26:38.570Z,37.42
2023-05-02T07:29:28.785Z,37.28
2023-05-02T07:32:17.424Z,36.99
2023-05-02T07:35:06.638Z,37.11
2023-05-02T07:37:55.470Z,37.17
2023-05-02T07:40:46.858Z,37.08
2023-05-02T07:43:35.474Z,37.19
2023-05-02T07:46:25.583Z,37.11
2023-05-02T07:49:17.151Z,37.44
2023-05-02T07:52:08.323Z,37.41
2023-05-02T07:54:56.989Z,37.29
2023-05-02T07:57:45.789Z,37.37
2023-05-02T08:00:34.433Z,37.46
2023-05-02T08:03:27.883Z,37.42
2023-05-02T08:06:16.707Z,37.03
2023-05-02T08:09:05.607Z,37.00
2023-05-02T08:11:54.286Z,37.34
2023-05-02T08:14:42.832Z,37.06
2023-05-02T08:17:31.985Z,37.12
2023-05-02T08:20:22.341Z,37.27
2023-05-02T08:23:11.089Z,37.18
2023-05-02T08:25:59.653Z,36.87
2023-05-02T08:28:48.393Z,36.82
2023-05-02T08:31:42.444Z,37.10
2023-05-02T08:34:33.921Z,37.16
2023-05-02T08:37:24.166Z,36.87
2023-05-02T08:40:14.482Z,37.20
2023-05-02T08:43:03.336Z,37.72
2023-05-02T08:45:55.902Z,37.63
2023-05-02T08:48:48.081Z,37.88
2023-05-02T08:51:40.350Z,37.67
2023-05-02T08:54:33.085Z,37.63
2023-05-02T08:57:21.879Z,37.88
2023-05-02T09:00:11.826Z,37.83
2023-05-02T09:03:12.985Z,37.22
2023-05-02T09:06:08.175Z,36.96
2023-05-02T09:08:59.383Z,37.26
2023-05-02T09:11:52.321Z,37.30
2023-05-02T09:14:40.890Z,36.89
2023-05-02T09:17:40.186Z,36.88
2023-05-02T09:20:29.235Z,36.82
2023-05-02T09:23:18.173Z,36.63
2023-05-02T09:26:18.528Z,36.67
2023-05-02T09:29:08.527Z,36.91
2023-05-02T09:31:57.340Z,37.08
2023-05-02T09:35:06.684Z,36.87
2023-05-02T09:37:56.158Z,36.80
2023-05-02T09:40:56.268Z,37.05
2023-05-02T09:43:45.115Z,36.89
2023-05-02T09:46:42.063Z,36.53
2023-05-02T09:49:45.313Z,36.85
2023-05-02T09:52:34.422Z,36.88
2023-05-02T09:55:23.154Z,36.60
2023-05-02T09:58:22.772Z,36.70
2023-05-02T10:01:19.835Z,36.83
2023-05-02T10:04:16.362Z,36.77
2023-05-02T10:07:06.609Z,36.62
2023-05-02T10:10:00.063Z,36.84
2023-05-02T10:12:52.760Z,37.08
2023-05-02T10:15:45.781Z,36.95
2023-05-02T10:18:44.033Z,36.86
2023-05-02T10:21:36.010Z,36.92
2023-05-02T10:24:25.494Z,36.68
2023-05-02T10:27:14.235Z,36.97
2023-05-02T10:30:04.346Z,36.73
2023-05-02T10:32:54.875Z,36.73
2023-05-02T10:35:46.934Z,36.95
2023-05-02T10:38:38.142Z,36.95
2023-05-02T10:41:29.302Z,36.79
2023-05-02T10:44:19.687Z,36.67
2023-05-02T10:47:21.326Z,37.04
2023-05-02T10:50:10.327Z,36.84
2023-05-02T10:52:59.717Z,36.69
2023-05-02T10:56:09.998Z,36.78
2023-05-02T10:59:30.915Z,37.03
2023-05-02T11:02:53.569Z,36.92
2023-05-02T11:06:06.846Z,36.96
2023-05-02T11:09:16.331Z,37.18
2023-05-02T11:12:07.351Z,37.33
2023-05-02T11:14:56.324Z,37.19
2023-05-02T11:18:01.496Z,37.03
2023-05-02T11:20:50.165Z,37.37
2023-05-02T11:23:40.455Z,36.92
2023-05-02T11:26:30.820Z,37.36
2023-05-02T11:32:18.490Z,36.76
2023-05-02T11:35:08.198Z,36.66
2023-05-02T11:37:59.681Z,36.93
2023-05-02T11:40:59.930Z,37.03
2023-05-02T11:43:49.078Z,36.97
2023-05-02T11:46:39.224Z,36.96
2023-05-02T11:49:31.370Z,37.26
2023-05-02T11:52:22.015Z,37.02
2023-05-02T11:55:16.412Z,37.11
2023-05-02T11:58:05.834Z,36.86
2023-05-02T12:00:55.453Z,37.00
2023-05-02T12:03:46.404Z,36.91
2023-05-02T12:06:36.992Z,37.16
2023-05-02T12:09:25.781Z,36.96
2023-05-02T12:12:15.790Z,37.00
2023-05-02T12:15:06.536Z,37.28
2023-05-02T12:17:55.365Z,36.99
2023-05-02T12:20:45.210Z,36.71
2023-05-02T12:23:37.614Z,36.82
2023-05-02T12:26:32.584Z,36.93
2023-05-02T12:29:22.361Z,37.15
2023-05-02T12:32:12.821Z,37.06
2023-05-02T12:35:02.044Z,36.81
2023-05-02T12:37:52.094Z,37.25
2023-05-02T12:40:49.408Z,37.34
2023-05-02T12:43:49.044Z,36.90
2023-05-02T12:46:37.829Z,36.96
2023-05-02T12:49:26.836Z,36.90
2023-05-02T12:52:16.029Z,36.97
2023-05-02T12:55:19.745Z,36.77
2023-05-02T12:58:14.385Z,36.68
2023-05-02T13:01:05.956Z,36.81
2023-05-02T13:03:54.860Z,36.91
2023-05-02T13:09:34.966Z,36.95
2023-05-02T13:12:24.029Z,36.82
2023-05-02T13:15:16.354Z,36.81
2023-05-02T13:18:05.226Z,36.82
2023-05-02T13:20:53.890Z,36.59
2023-05-02T13:23:44.152Z,36.62
2023-05-02T13:26:33.405Z,37.01
2023-05-02T13:29:22.114Z,37.13
2023-05-02T13:32:12.183Z,35.02
2023-05-02T13:35:00.758Z,34.85
2023-05-02T13:37:49.532Z,34.66
2023-05-02T13:40:38.495Z,35.13
2023-05-02T13:43:27.565Z,34.76
2023-05-02T13:46:16.291Z,34.77
2023-05-02T13:49:06.453Z,34.88
2023-05-02T13:51:55.411Z,35.31
2023-05-02T13:54:44.124Z,35.13
2023-05-02T13:57:32.889Z,35.33
2023-05-02T14:00:22.139Z,35.37
2023-05-02T14:03:11.915Z,35.32
2023-05-02T14:06:02.169Z,35.76
2023-05-02T14:08:51.212Z,35.70
2023-05-02T14:11:39.889Z,36.29
2023-05-02T14:14:28.480Z,36.84
2023-05-02T14:17:17.370Z,37.11
2023-05-02T14:20:07.547Z,36.59
2023-05-02T14:22:57.574Z,36.44
2023-05-02T14:25:46.224Z,36.44
2023-05-02T14:28:35.197Z,36.45
2023-05-02T14:31:24.023Z,35.76
2023-05-02T14:34:13.068Z,35.49
2023-05-02T14:37:04.067Z,35.67
2023-05-02T14:39:58.324Z,35.86
2023-05-02T14:42:47.343Z,36.10
2023-05-02T14:45:38.081Z,36.62
2023-05-02T14:48:26.815Z,37.00
2023-05-02T14:51:15.524Z,36.96
2023-05-02T14:54:04.552Z,36.84
2023-05-02T14:56:54.545Z,36.72
2023-05-02T14:59:44.403Z,37.44
2023-05-02T15:02:33.307Z,37.50
2023-05-02T15:05:22.330Z,37.60
2023-05-02T15:08:18.125Z,37.88
2023-05-02T15:11:07.366Z,39.14
2023-05-02T15:13:59.511Z,39.23
2023-05-02T15:16:51.197Z,38.68
2023-05-02T15:19:39.780Z,38.52
2023-05-02T15:22:29.273Z,38.25
2023-05-02T15:25:18.214Z,38.34
2023-05-02T15:28:08.156Z,38.01
2023-05-02T15:30:58.801Z,38.09
2023-05-02T15:33:50.167Z,38.39
2023-05-02T15:36:38.907Z,37.92
2023-05-02T15:39:28.007Z,37.47
2023-05-02T15:42:16.626Z,37.43
2023-05-02T15:45:06.195Z,37.56
2023-05-02T15:47:57.252Z,37.01
2023-05-02T15:50:47.178Z,36.96
2023-05-02T15:53:39.793Z,37.40
2023-05-02T15:56:29.320Z,36.95
2023-05-02T15:59:21.476Z,37.40
2023-05-02T16:02:11.856Z,37.20
2023-05-02T16:05:03.483Z,37.30
2023-05-02T16:07:55.906Z,37.29
2023-05-02T16:10:45.042Z,37.58
2023-05-02T16:13:35.959Z,37.34
2023-05-02T16:16:24.711Z,37.44
2023-05-02T16:19:13.925Z,37.56
2023-05-02T16:22:06.594Z,37.84
2023-05-02T16:24:56.126Z,37.31
2023-05-02T16:27:45.029Z,37.18
2023-05-02T16:30:38.021Z,37.07
2023-05-02T16:33:28.643Z,36.99
2023-05-02T16:36:20.790Z,36.80
2023-05-02T16:39:11.750Z,36.95
2023-05-02T16:42:01.894Z,36.92
2023-05-02T16:44:53.962Z,36.50
2023-05-02T16:47:43.104Z,36.40
2023-05-02T16:50:31.771Z,36.32
2023-05-02T16:53:20.681Z,36.31
2023-05-02T16:56:11.955Z,36.61
2023-05-02T16:59:00.773Z,36.19
2023-05-02T17:01:50.006Z,36.61
2023-05-02T17:04:39.167Z,36.29
2023-05-02T17:07:28.126Z,36.46
2023-05-02T17:10:18.008Z,36.77
2023-05-02T17:13:08.670Z,36.95
2023-05-02T17:16:03.469Z,36.89
2023-05-02T17:18:55.713Z,36.70
2023-05-02T17:21:44.374Z,37.29
2023-05-02T17:24:33.586Z,37.19
2023-05-02T17:27:22.218Z,37.46
2023-05-02T17:30:14.048Z,37.61
2023-05-02T17:33:05.820Z,37.53
2023-05-02T17:35:56.016Z,37.31
2023-05-02T17:38:45.372Z,37.39
2023-05-02T17:41:37.732Z,37.68
2023-05-02T17:44:26.365Z,37.31
2023-05-02T17:47:19.629Z,37.63
2023-05-02T17:50:11.232Z,37.68
2023-05-02T17:53:00.456Z,37.72
2023-05-02T17:55:49.212Z,37.73
2023-05-02T17:58:37.824Z,37.72
2023-05-02T18:01:28.608Z,38.06
2023-05-02T18:04:18.555Z,38.42
2023-05-02T18:07:07.726Z,38.31
2023-05-02T18:09:56.328Z,38.19
2023-05-02T18:12:44.929Z,37.95
2023-05-02T18:15:33.595Z,37.80
2023-05-02T18:18:22.336Z,38.06
2023-05-02T18:21:12.441Z,38.10
2023-05-02T18:24:01.131Z,37.97
2023-05-02T18:26:50.620Z,37.98
2023-05-02T18:29:39.310Z,37.99
2023-05-02T18:32:27.939Z,37.90
2023-05-02T18:35:16.689Z,37.77
2023-05-02T18:38:09.644Z,37.97
2023-05-02T18:40:58.251Z,38.01
2023-05-02T18:43:47.053Z,38.02
2023-05-02T18:46:35.688Z,38.06
2023-05-02T18:49:24.463Z,38.39
2023-05-02T18:52:13.510Z,38.56
2023-05-02T18:55:04.973Z,38.05
2023-05-02T18:57:56.121Z,38.12
2023-05-02T19:00:44.851Z,38.55
2023-05-02T19:03:33.653Z,38.35
2023-05-02T19:06:22.458Z,38.47
2023-05-02T19:09:13.114Z,38.11
2023-05-02T19:12:04.013Z,38.22
2023-05-02T19:14:52.651Z,38.42
2023-05-02T19:17:41.362Z,38.45
2023-05-02T19:20:30.467Z,38.48
2023-05-02T19:23:20.565Z,38.56
2023-05-02T19:26:14.036Z,38.53
2023-05-02T19:29:04.522Z,38.77
2023-05-02T19:31:53.234Z,38.89
2023-05-02T19:34:42.028Z,39.00
2023-05-02T19:37:30.667Z,39.01
2023-05-02T19:40:19.413Z,38.86
2023-05-02T19:43:10.327Z,38.90
2023-05-02T19:46:00.308Z,38.99
2023-05-02T19:48:49.296Z,39.38
2023-05-02T19:51:38.073Z,39.27
2023-05-02T19:54:26.734Z,38.99
2023-05-02T19:57:17.041Z,39.13
2023-05-02T20:00:07.122Z,39.07
2023-05-02T20:03:00.402Z,39.10
2023-05-02T20:05:50.986Z,39.35
2023-05-02T20:08:39.882Z,39.28
2023-05-02T20:11:28.536Z,39.44
2023-05-02T20:14:18.214Z,39.41
2023-05-02T20:17:07.155Z,39.38
2023-05-02T20:19:57.435Z,38.91
2023-05-02T20:22:46.290Z,39.52
2023-05-02T20:25:34.892Z,39.11
2023-05-02T20:28:24.928Z,34.49
2023-05-02T20:31:14.793Z,32.30
2023-05-02T20:34:03.573Z,32.00
2023-05-02T20:36:54.264Z,32.14
2023-05-02T20:39:44.753Z,32.11
2023-05-02T20:42:33.593Z,31.62
2023-05-02T20:45:24.336Z,31.10
2023-05-02T20:48:17.842Z,31.35
2023-05-02T20:51:06.704Z,31.18
2023-05-02T20:53:56.934Z,33.70
2023-05-02T20:56:45.729Z,35.71
2023-05-02T20:59:34.461Z,36.25
2023-05-02T21:02:23.307Z,36.37
2023-05-02T21:05:13.040Z,36.30
2023-05-02T21:08:12.885Z,36.53
2023-05-02T21:11:03.000Z,36.78
2023-05-02T21:13:51.856Z,36.85
2023-05-02T21:16:43.442Z,36.81
2023-05-02T21:19:34.856Z,37.24
2023-05-02T21:22:26.175Z,37.12
2023-05-02T21:25:19.672Z,36.92
2023-05-02T21:28:09.980Z,37.20
2023-05-02T21:31:02.013Z,37.52
2023-05-02T21:33:50.714Z,36.86
2023-05-02T21:36:39.334Z,36.96
2023-05-02T21:39:27.993Z,37.33
2023-05-02T21:42:16.754Z,37.61
2023-05-02T21:45:07.791Z,37.44
2023-05-02T21:47:58.968Z,37.28
2023-05-02T21:50:48.456Z,37.55
2023-05-02T21:53:39.869Z,37.38
2023-05-02T21:56:28.515Z,37.70
2023-05-02T21:59:17.384Z,37.57
2023-05-02T22:02:07.558Z,37.87
2023-05-02T22:04:57.771Z,37.59
2023-05-02T22:07:49.792Z,37.79
2023-05-02T22:10:43.821Z,37.94
2023-05-02T22:13:32.551Z,37.79
2023-05-02T22:16:21.487Z,37.71
2023-05-02T22:19:14.481Z,38.02
2023-05-02T22:22:03.904Z,38.05
2023-05-02T22:24:52.520Z,37.95
2023-05-02T22:27:41.138Z,37.71
2023-05-02T22:30:29.775Z,38.36
2023-05-02T22:33:18.586Z,37.79
2023-05-02T22:36:08.999Z,38.02
2023-05-02T22:38:57.798Z,37.77
2023-05-02T22:41:46.457Z,38.17
2023-05-02T22:44:46.721Z,37.98
2023-05-02T22:47:41.977Z,38.10
2023-05-02T22:50:31.954Z,37.92
2023-05-02T22:53:23.583Z,37.79
2023-05-02T22:56:12.216Z,37.80
2023-05-02T22:59:01.198Z,37.93
2023-05-02T23:01:50.683Z,38.38
2023-05-02T23:04:39.522Z,37.92
2023-05-02T23:07:28.138Z,38.24
2023-05-02T23:10:18.234Z,37.87
2023-05-02T23:13:06.840Z,37.92
2023-05-02T23:15:57.156Z,37.81
2023-05-02T23:18:46.178Z,38.16
2023-05-02T23:21:34.802Z,38.43
2023-05-02T23:24:23.380Z,38.11
2023-05-02T23:27:13.611Z,38.40
2023-05-02T23:30:02.741Z,38.09
2023-05-02T23:32:51.968Z,38.04
2023-05-02T23:35:40.657Z,38.16
2023-05-02T23:38:29.624Z,38.08
2023-05-02T23:41:18.266Z,38.01
2023-05-02T23:44:08.308Z,38.11
2023-05-02T23:46:56.950Z,38.12
2023-05-02T23:49:45.531Z,38.23
2023-05-02T23:52:34.685Z,38.28
2023-05-02T23:55:23.258Z,38.43
2023-05-02T23:58:12.084Z,38.50
